Terminal Aerodrome Forecast
Issued by NWS Sterling, VA

Current Version | Previous Version | Graphics & Text | Print | Product List | Glossary On
Versions: 1 2 3 4 5 6 7 8 9 10 11 12 13 14 15 16 17 18 19 20 21 22 23
000
FTUS41 KLWX 142320
TAFDCA
TAF
KDCA 142320Z 1500/1524 VRB03KT P6SM BKN015
     FM150600 00000KT 5SM BR SCT003 BKN008
     FM151200 20006KT P6SM BKN020
     FM151600 21011G19KT P6SM SCT050=

USA.gov is the U.S. government's official web portal to all federal, state and local government web resources and services.